Startpagina
METAR-TAF:

METAR-TAF

Vliegvelden :

Internationale luchthaven van Bahrein

Bahrein, Bahrein

breedte: 26-16N, lengte: 050-39E, hoogte: 2 m

Actueel weer

Dit bericht is 16 minuten geleden gemaakt, om 13:30 UTC
Wind 7 kt uit het oosten
Temperatuur 23°C
Vochtigheid 65%
Druk 1011 hPa
Zicht 10 km of meer
geen wolken onder 1500 m en geen cumulonimbus

METAR: OBBI 191330Z 10007KT CAVOK 23/16 Q1011 NOSIG

Tijdstip: 16:46 (13:46 UTC)

Verwachting

Dit bericht is 2 uur en het 46 minuten geleden gemaakt, om 11:00 UTC
Verwachting geldig van 19 om 12 UTC tot 20 om 18 UTC
Wind 8 kt uit het zuidoosten
Zicht 10 km of meer
geen wolken onder 1500 m en geen cumulonimbus
Kans 30% :
Tijdelijke
van 20 om 00 UTC tot 20 om 13 UTC
Zicht: 5000 m
Verspreide wolken op 1500 ft
Gebroken wolken op 10000 ft
lichte regenbuien
Wijzigt naar
van 20 om 12 UTC tot 20 om 14 UTC
Wind 12 kt uit het noordnoordwesten

TAF: OBBI 191100Z 1912/2018 13008KT CAVOK PROB30 TEMPO 2000/2013 5000 -SHRA SCT015 BKN100 BECMG 2012/2014 34012KT

Waarnemingen en weersverwachtingen van meer dan 4000 vliegvelden (METAR en TAF).

De beschikbare stations zijn de gele en rode punten op de kaart.

Ga met uw muis naar het station om de naam te zien.

Klik dan om waarnemingen en weersverwachtingen te zien.

kaart wijzigen: klik op de groene knoppen met een zwart kruis om in te zoomen, op de groene knop met een streepje om uit te zoomen of op de groene pijlen voor aangrenzende kaarten.


METAR-TAF: